• Join FlightAware (Why Join?)
  • Login
  • US Flag 
04:27AM EDT


 

Airport Tracker/Info


-or-


 

Live Flight TrackerFlight Track Log ✈ UAL4257 ✈ 02-May-2013 ✈ MMMY / MTY - KIAH

Flight Track Log - Related Links

Times and Time Zones

All times are in EDT time to prevent confusion due to time zone crossing. See the UAL4257 flight status page for this flight to view local times or setup timezone preferences in your user account.

Time Position Orientation Groundspeed Altitude Reporting Facility
EDT Latitude Longitude Course Direction KTS MPH feet Rate Location/Type
12:12PM 26.2708 -99.5766 44° Northeast  Level Estimated
12:12PM 25.8814 -99.7586 44° Northeast 309 356 15,800  Level Houston Center
12:13PM 26.3438 -99.4974 44° Northeast  Level Estimated
12:13PM 25.9525 -99.6994 37° Northeast 314 361 17,500  Level Houston Center
12:14PM 26.4167 -99.4182 44° Northeast  Level Estimated
12:14PM 26.0328 -99.6339 36° Northeast 338 389 18,600  Level Houston Center
12:15PM 26.4895 -99.3389 44° Northeast  Level Estimated
12:15PM 26.1194 -99.5608 37° Northeast 368 423 19,900  Level Houston Center
12:16PM 26.5623 -99.2594 44° Northeast  Level Estimated
12:16PM 26.2239 -99.4711 38° Northeast 386 444 21,800  Level Houston Center
12:17PM 26.6351 -99.1799 44° Northeast  Level Estimated
12:17PM 26.3136 -99.3944 37° Northeast 397 457 23,300  Level Houston Center
12:18PM 26.4022 -99.3178 38° Northeast 401 461 24,900 780 Climbing Houston Center
12:19PM 26.4936 -99.2381 38° Northeast 407 468 25,000  Climbing Houston Center
12:20PM 26.5858 -99.1489 41° Northeast 425 489 25,000  Level Houston Center
12:21PM 26.6808 -99.0558 41° Northeast 443 510 25,000  Level Houston Center
12:22PM 26.7922 -98.9450 42° Northeast 448 516 25,000  Level Houston Center
12:23PM 26.8869 -98.8558 40° Northeast 447 514 25,000  Level Houston Center
12:24PM 26.9819 -98.7608 42° Northeast 456 525 25,000  Level Houston Center
12:25PM 27.0767 -98.6681 41° Northeast 456 525 25,000  Level Houston Center
12:26PM 27.1911 -98.5561 41° Northeast 458 527 25,000  Level Houston Center
12:27PM 27.2864 -98.4611 42° Northeast 461 531 25,000  Level Houston Center
12:29PM 27.3828 -98.3669 41° Northeast 462 532 25,000  Level Houston Center
12:30PM 27.4781 -98.2717 42° Northeast 462 532 25,000  Level Houston Center
12:31PM 27.5728 -98.1786 41° Northeast 456 525 25,000  Level Houston Center
12:32PM 27.6864 -98.0653 41° Northeast 456 525 25,000  Level Houston Center
12:33PM 27.7811 -97.9714 41° Northeast 455 524 25,000  Level Houston Center
12:34PM 27.8747 -97.8781 41° Northeast 451 519 25,000  Level Houston Center
12:35PM 27.9681 -97.7833 42° Northeast 452 520 25,000  Level Houston Center
12:36PM 28.0733 -97.6783 41° Northeast 454 522 25,000  Level Houston Center
12:37PM 28.1681 -97.5847 41° Northeast 453 521 25,000  Level Houston Center
12:38PM 28.2617 -97.4889 42° Northeast 453 521 25,000 -60 Level Houston Center
12:39PM 28.3550 -97.3931 42° Northeast 454 522 24,900  Descending Houston Center
12:40PM 28.4497 -97.2986 41° Northeast 455 524 25,000  Climbing Houston Center
12:41PM 28.5625 -97.1825 42° Northeast 456 525 25,000  Level Houston Center
12:42PM 28.6569 -97.0858 42° Northeast 458 527 25,000  Level Houston Center
12:43PM 28.7517 -96.9900 42° Northeast 458 527 25,000 -300 Level Houston Center
12:44PM 28.8461 -96.8939 42° Northeast 457 526 24,500 -1,200 Descending Houston Center
12:45PM 28.9364 -96.7994 42° Northeast 447 514 22,600 -2,100 Descending Houston Center
12:46PM 29.0417 -96.6906 42° Northeast 432 497 20,200 -1,920 Descending Houston Center
12:47PM 29.1272 -96.6025 42° Northeast 420 483 18,700 -1,500 Descending Houston Center
12:48PM 29.1600 -96.5706 40° Northeast 407 468 18,000 -1,260 Descending Houston Center
12:48PM 29.2083 -96.5183 43° Northeast 402 463 17,400 -1,380 Descending Houston Center
12:49PM 29.2489 -96.4775 41° Northeast 394 453 16,600 -1,260 Descending Houston Center
12:49PM 29.2878 -96.4358 43° Northeast 392 451 16,100 -1,200 Descending Houston Center
12:50PM 29.3317 -96.3917 41° Northeast 385 443 15,400 -1,320 Descending Houston Center
12:51PM 29.4586 -96.2572 43° Northeast 377 434 13,400 -1,260 Descending Houston Center
12:52PM 29.4897 -96.2256 42° Northeast 371 427 12,900 -1,380 Descending Houston Center
12:52PM 29.5297 -96.1825 43° Northeast 354 407 12,000 -720 Descending Houston Center
12:53PM 29.5581 -96.1414 52° Northeast 337 388 12,100  Climbing Houston Center
12:53PM 29.5822 -96.0919 61° Northeast 348 400 12,000  Descending Houston Center
12:54PM 29.6103 -96.0394 58° Northeast 347 399 12,100  Climbing Houston Center
12:54PM 29.6306 -95.9972 61° Northeast 345 397 12,000 -120 Descending Houston Center
12:55PM 29.6583 -95.9425 60° Northeast 345 397 12,000 -600 Level Houston Center
12:56PM 29.7367 -95.7894 59° Northeast 344 396 10,800 -900 Descending Houston Center
12:57PM 29.7514 -95.7586 61° Northeast 296 341 10,300 -1,380 Descending Houston Center
12:57PM 29.7775 -95.7072 60° Northeast 309 356 9,400 -1,440 Descending Houston Center
12:58PM 29.7886 -95.6822 63° Northeast 284 327 9,000 -1,380 Descending Houston Center
12:59PM 29.8156 -95.6300 59° Northeast 281 323 8,000 -1,500 Descending Houston Center
12:59PM 29.8281 -95.6078 57° Northeast 280 322 7,500 -1,500 Descending Houston Center
01:00PM 29.8525 -95.5547 62° Northeast 271 312 6,500 -1,380 Descending Houston Center
01:00PM 29.8672 -95.5283 57° Northeast 261 300 6,100 -540 Descending Houston Center
01:01PM 29.8886 -95.4825 62° Northeast 260 299 6,000 -120 Descending Houston Center
01:01PM 29.8961 -95.4528 74° East 257 296 6,000  Level Houston Center
01:02PM 29.8958 -95.3975 90° East 279 321 6,000  Level Houston Center
01:03PM 29.8964 -95.3103 90° East 272 313 6,000  Level Houston Center
01:04PM 29.8975 -95.2069 89° East 267 307 6,000  Level Houston Center
01:05PM 29.8969 -95.1314 90° East 236 272 6,000 -540 Level Houston Center
01:06PM 29.8967 -95.0575 90° East 229 264 5,000 -660 Descending Houston Center
01:07PM 29.9167 -94.9978 69° East 223 257 4,700 -720 Descending Houston Center
01:08PM 29.9764 -95.0258 338° Northwest 208 239 3,600 -840 Descending Houston Center
01:09PM 29.9917 -95.1011 283° West 222 255 3,000 -480 Descending Houston Center
01:10PM 29.9922 -95.1733 271° West 215 247 2,700 -600 Descending Houston Center
01:11PM 29.9939 -95.2244 272° West 209 241 1,900 -840 Descending Houston Center
01:12PM 29.9928 -95.2697 268° West 132 152 1,100 -780 Descending Houston Center
01:13PM 29.9947 -95.3089 273° West 141 162 400 -660 Descending Houston Center